Time;durP1;ratioP1;P1;durP2;ratioP2;P2;SDS_P1;SDS_P2;PMS_P1;PMS_P2;Temp;Humidity;BMP_temperature;BMP_pressure;BME280_temperature;BME280_humidity;BME280_pressure;Samples;Min_cycle;Max_cycle;Signal;HPM_P1;HPM_P2
2023/03/05 00:01:14;;;;;;;18.05;9.52;;;;;;;3.49;84.90;95985.25;5093945;28;20048;-63
2023/03/05 00:03:41;;;;;;;17.50;12.25;;;;;;;3.55;84.47;95990.28;5093904;28;20048;-63
2023/03/05 00:06:09;;;;;;;13.10;8.60;;;;;;;3.59;84.18;95989.38;5093828;28;20500;-63
2023/03/05 00:08:38;;;;;;;19.88;8.63;;;;;;;3.56;84.32;95981.66;5094013;28;20056;-63
2023/03/05 00:11:08;;;;;;;9.57;7.47;;;;;;;3.57;84.60;95985.09;5093906;28;20148;-63
2023/03/05 00:13:35;;;;;;;16.30;8.33;;;;;;;3.42;85.12;95984.50;5093935;28;20166;-64
2023/03/05 00:16:04;;;;;;;13.55;8.20;;;;;;;3.41;86.15;95978.47;5093720;28;20276;-63
2023/03/05 00:18:31;;;;;;;18.48;6.70;;;;;;;3.45;86.16;95973.25;5093558;28;20048;-63
2023/03/05 00:20:58;;;;;;;11.52;7.50;;;;;;;3.52;85.84;95972.22;5093752;28;20167;-63
2023/03/05 00:23:25;;;;;;;10.65;7.20;;;;;;;3.51;85.41;95970.53;5093652;28;20052;-64
2023/03/05 00:25:53;;;;;;;9.30;7.57;;;;;;;3.58;85.26;95966.13;5093623;28;20047;-63
2023/03/05 00:28:20;;;;;;;12.95;6.97;;;;;;;3.57;85.22;95957.50;5093586;28;20445;-64
2023/03/05 00:30:48;;;;;;;9.90;6.20;;;;;;;3.60;84.98;95962.63;5093586;28;20450;-63
2023/03/05 00:33:15;;;;;;;10.25;7.47;;;;;;;3.60;84.76;95960.03;5093363;28;20048;-63
2023/03/05 00:35:44;;;;;;;10.43;6.90;;;;;;;3.58;84.90;95963.53;5093227;28;20052;-63
2023/03/05 00:38:11;;;;;;;10.40;7.97;;;;;;;3.54;84.92;95966.19;5093439;28;20551;-63
2023/03/05 00:40:39;;;;;;;15.75;8.32;;;;;;;3.46;84.49;95962.03;5093540;28;20119;-63
2023/03/05 00:43:08;;;;;;;16.55;9.07;;;;;;;3.49;84.79;95960.22;5093402;28;20048;-64
2023/03/05 00:45:35;;;;;;;11.90;7.03;;;;;;;3.47;83.97;95953.38;5093285;28;20200;-63
2023/03/05 00:48:04;;;;;;;9.82;6.10;;;;;;;3.31;82.85;95961.41;5093273;28;20554;-63
2023/03/05 00:50:31;;;;;;;9.43;6.60;;;;;;;3.21;82.80;95960.75;5093181;28;20060;-63
2023/03/05 00:52:59;;;;;;;14.02;7.25;;;;;;;3.17;82.84;95956.50;5093146;28;20056;-64
2023/03/05 00:55:27;;;;;;;11.43;7.32;;;;;;;3.13;82.46;95954.88;5093170;28;20131;-63
2023/03/05 00:57:58;;;;;;;15.52;7.07;;;;;;;2.93;81.97;95944.88;5092725;28;20490;-63
2023/03/05 01:00:27;;;;;;;14.25;7.55;;;;;;;2.72;82.52;95949.53;5093157;28;20047;-63
2023/03/05 01:02:56;;;;;;;11.25;8.10;;;;;;;2.65;82.54;95948.78;5093064;28;20044;-63
2023/03/05 01:05:23;;;;;;;14.02;8.10;;;;;;;2.67;83.19;95941.00;5093012;28;20047;-62
2023/03/05 01:07:53;;;;;;;12.93;7.53;;;;;;;2.53;83.49;95948.06;5092964;28;20044;-63
2023/03/05 01:10:20;;;;;;;16.95;8.77;;;;;;;2.43;84.24;95950.81;5093071;28;20080;-62
2023/03/05 01:12:48;;;;;;;12.70;9.07;;;;;;;2.43;84.99;95940.50;5093149;28;20472;-63
2023/03/05 01:15:15;;;;;;;14.88;9.70;;;;;;;2.35;86.05;95943.22;5093078;28;20044;-63
2023/03/05 01:17:44;;;;;;;12.27;9.02;;;;;;;2.27;85.60;95935.56;5092939;28;20493;-63
2023/03/05 01:20:13;;;;;;;11.85;7.90;;;;;;;2.32;85.29;95936.34;5093081;28;20444;-63
2023/03/05 01:22:41;;;;;;;13.05;7.68;;;;;;;2.35;84.81;95933.72;5092949;28;20139;-63
2023/03/05 01:25:09;;;;;;;11.73;6.63;;;;;;;2.33;83.37;95937.22;5092987;28;20056;-62
2023/03/05 01:27:36;;;;;;;10.18;7.25;;;;;;;2.18;83.36;95927.97;5092945;28;20131;-63
2023/03/05 01:30:04;;;;;;;10.20;7.50;;;;;;;2.13;83.31;95928.00;5092876;28;20079;-64
2023/03/05 01:32:31;;;;;;;13.13;8.18;;;;;;;2.01;83.41;95923.88;5093056;28;20083;-64
2023/03/05 01:35:00;;;;;;;15.00;9.45;;;;;;;1.98;84.55;95924.78;5092850;28;20075;-63
2023/03/05 01:37:28;;;;;;;17.27;13.07;;;;;;;1.99;84.62;95925.66;5092834;28;20075;-62
2023/03/05 01:39:55;;;;;;;17.70;11.70;;;;;;;1.91;85.57;95936.06;5092780;28;20128;-64
2023/03/05 01:42:23;;;;;;;14.85;9.20;;;;;;;1.83;85.22;95922.41;5092776;28;20101;-63
2023/03/05 01:45:02;;;;;;;15.70;9.43;;;;;;;1.71;85.68;95918.25;5092787;28;20051;-63
2023/03/05 01:47:30;;;;;;;11.07;6.25;;;;;;;1.66;85.99;95913.19;5095845;28;20077;-63
2023/03/05 01:49:59;;;;;;;15.48;9.70;;;;;;;1.59;86.08;95904.66;5096561;28;20090;-62
2023/03/05 01:52:29;;;;;;;13.70;9.32;;;;;;;1.48;86.74;95912.50;5096536;28;20131;-63
2023/03/05 01:55:00;;;;;;;14.65;9.10;;;;;;;1.53;86.47;95912.47;5096322;28;20494;-63
2023/03/05 01:57:31;;;;;;;18.77;8.98;;;;;;;1.50;86.18;95913.38;5096255;28;20052;-63
2023/03/05 02:00:02;;;;;;;15.30;10.20;;;;;;;1.53;86.14;95914.22;5096281;28;20123;-62
2023/03/05 02:02:30;;;;;;;15.60;11.60;;;;;;;1.53;86.30;95916.78;5096446;28;20044;-64
2023/03/05 02:05:03;;;;;;;17.05;10.30;;;;;;;1.53;86.57;95917.63;5096306;28;20052;-63
2023/03/05 02:07:31;;;;;;;18.40;10.00;;;;;;;1.49;86.74;95915.94;5096279;28;20079;-62
2023/03/05 02:09:58;;;;;;;17.33;10.02;;;;;;;1.54;87.70;95919.34;5096058;28;20044;-63
2023/03/05 02:12:26;;;;;;;17.38;11.32;;;;;;;1.60;86.87;95921.00;5096119;28;20143;-61
2023/03/05 02:14:58;;;;;;;15.02;10.73;;;;;;;1.66;86.91;95926.06;5095953;28;20079;-63
2023/03/05 02:17:27;;;;;;;16.08;8.77;;;;;;;1.70;86.00;95925.16;5096039;28;20132;-62
2023/03/05 02:20:02;;;;;;;14.98;9.02;;;;;;;1.73;86.10;95929.41;5096043;28;20101;-63
2023/03/05 02:22:31;;;;;;;13.68;9.10;;;;;;;1.74;86.43;95925.97;5095960;28;20075;-63
2023/03/05 02:24:58;;;;;;;14.35;9.48;;;;;;;1.67;86.01;95930.34;5095779;28;20511;-64
2023/03/05 02:27:33;;;;;;;15.98;9.27;;;;;;;1.56;85.16;95929.63;5095933;28;20048;-64
2023/03/05 02:30:02;;;;;;;14.25;8.98;;;;;;;1.56;85.16;95927.91;5095799;28;20044;-63
2023/03/05 02:32:30;;;;;;;12.55;8.00;;;;;;;1.54;84.76;95936.53;5095799;28;20044;-63
2023/03/05 02:34:57;;;;;;;11.07;7.57;;;;;;;1.54;84.02;95942.56;5095620;28;20058;-63
2023/03/05 02:37:24;;;;;;;11.30;7.40;;;;;;;1.50;83.56;95933.97;5095495;28;20048;-63
2023/03/05 02:39:53;;;;;;;12.85;7.57;;;;;;;1.37;83.50;95938.44;5095613;28;20048;-63
2023/03/05 02:42:20;;;;;;;11.88;7.78;;;;;;;1.24;84.53;95923.97;5095597;28;20126;-63
2023/03/05 02:44:47;;;;;;;11.45;7.90;;;;;;;1.07;85.30;95925.00;5095649;28;20144;-62
2023/03/05 02:47:14;;;;;;;17.98;9.02;;;;;;;0.99;85.63;95919.94;5095517;28;20082;-64
2023/03/05 02:49:41;;;;;;;16.20;9.18;;;;;;;1.03;86.12;95922.47;5095425;28;20147;-63
2023/03/05 02:52:09;;;;;;;16.60;8.85;;;;;;;1.09;85.97;95915.53;5095389;28;20044;-62
2023/03/05 02:54:36;;;;;;;14.07;8.65;;;;;;;1.11;85.71;95918.94;5095361;28;20051;-63
2023/03/05 02:57:04;;;;;;;13.15;8.95;;;;;;;1.11;86.50;95915.50;5094618;28;20052;-63
2023/03/05 02:59:31;;;;;;;14.98;9.32;;;;;;;1.09;86.57;95912.13;5094998;28;20080;-63
2023/03/05 03:01:58;;;;;;;13.85;9.18;;;;;;;0.98;86.92;95910.50;5095152;28;20048;-63
2023/03/05 03:04:26;;;;;;;10.60;7.85;;;;;;;1.02;86.84;95907.91;5095180;28;20055;-63
2023/03/05 03:06:53;;;;;;;12.27;8.40;;;;;;;1.06;86.51;95913.00;5095134;28;20142;-62
2023/03/05 03:09:21;;;;;;;12.82;7.95;;;;;;;1.03;86.35;95917.31;5095005;28;20040;-63
2023/03/05 03:11:48;;;;;;;13.10;8.68;;;;;;;1.00;86.25;95916.47;5094954;28;20056;-63
2023/03/05 03:14:16;;;;;;;14.00;8.55;;;;;;;1.03;86.63;95918.19;5095109;28;20040;-63
2023/03/05 03:16:43;;;;;;;13.00;8.23;;;;;;;1.07;86.04;95921.56;5094882;28;20051;-63
2023/03/05 03:19:11;;;;;;;43.67;28.45;;;;;;;1.08;86.07;95911.25;5094882;28;20436;-63
2023/03/05 03:21:38;;;;;;;38.15;25.45;;;;;;;1.12;85.80;95912.91;5094667;28;20048;-64
2023/03/05 03:24:06;;;;;;;16.70;12.15;;;;;;;1.13;85.79;95922.38;5094839;28;20075;-63
2023/03/05 03:26:33;;;;;;;18.73;9.60;;;;;;;1.19;85.52;95918.88;5094738;28;20090;-63
2023/03/05 03:29:00;;;;;;;12.55;8.48;;;;;;;1.20;84.99;95928.31;5094656;28;20478;-63
2023/03/05 03:31:29;;;;;;;15.15;8.45;;;;;;;1.19;84.86;95924.03;5094946;28;20109;-62
2023/03/05 03:33:56;;;;;;;16.27;8.38;;;;;;;1.13;84.68;95914.66;5094556;28;20553;-63
2023/03/05 03:36:23;;;;;;;11.75;8.00;;;;;;;1.00;85.59;95915.63;5094560;28;20046;-63
2023/03/05 03:38:50;;;;;;;17.52;8.15;;;;;;;0.86;85.82;95913.19;5094385;28;20144;-63
2023/03/05 03:41:18;;;;;;;15.07;8.85;;;;;;;0.79;85.93;95914.13;5094373;28;20076;-63
2023/03/05 03:43:45;;;;;;;11.32;7.85;;;;;;;0.81;86.58;95913.22;5094287;28;20498;-62
2023/03/05 03:46:13;;;;;;;16.77;7.88;;;;;;;0.77;86.31;95905.53;5094417;28;20126;-63
2023/03/05 03:48:41;;;;;;;15.90;7.95;;;;;;;0.70;86.57;95903.06;5094382;28;20083;-63
2023/03/05 03:51:09;;;;;;;15.57;9.30;;;;;;;0.62;87.79;95900.53;5094185;28;20048;-64
2023/03/05 03:53:36;;;;;;;11.95;8.23;;;;;;;0.60;88.05;95898.84;5094205;28;20051;-62
2023/03/05 03:56:03;;;;;;;14.10;9.00;;;;;;;0.65;88.40;95906.50;5094068;28;20072;-63
2023/03/05 03:58:30;;;;;;;15.32;9.73;;;;;;;0.67;88.48;95915.06;5093902;28;20047;-62
2023/03/05 04:00:57;;;;;;;14.90;8.55;;;;;;;0.69;88.12;95911.63;5094019;28;20044;-62
2023/03/05 04:03:25;;;;;;;16.95;9.00;;;;;;;0.73;87.97;95918.44;5093978;28;20054;-62
2023/03/05 04:05:53;;;;;;;11.77;8.07;;;;;;;0.77;87.42;95919.28;5093998;28;20580;-61
2023/03/05 04:08:20;;;;;;;17.33;9.13;;;;;;;0.75;87.11;95919.28;5093544;28;20058;-62
2023/03/05 04:10:58;;;;;;;12.32;8.02;;;;;;;0.73;86.86;95912.47;5093705;28;20083;-63
2023/03/05 04:13:26;;;;;;;14.50;7.75;;;;;;;0.69;86.40;95908.22;5093784;28;20048;-63
2023/03/05 04:15:53;;;;;;;11.27;7.82;;;;;;;0.67;85.96;95918.53;5093869;28;20040;-62
2023/03/05 04:18:20;;;;;;;12.77;8.30;;;;;;;0.65;86.37;95917.66;5093589;28;20048;-63
2023/03/05 04:20:48;;;;;;;15.32;8.35;;;;;;;0.67;86.17;95918.53;5093684;28;20054;-64
2023/03/05 04:23:17;;;;;;;12.95;8.02;;;;;;;0.73;86.22;95917.59;5093791;28;20057;-64
2023/03/05 04:25:44;;;;;;;21.53;16.33;;;;;;;0.68;86.07;95916.78;5093722;28;20057;-62
2023/03/05 04:28:12;;;;;;;18.80;12.80;;;;;;;0.58;86.90;95914.31;5093613;28;20131;-64
2023/03/05 04:30:40;;;;;;;12.35;8.15;;;;;;;0.58;86.96;95913.44;5093556;28;20052;-64
2023/03/05 04:33:07;;;;;;;14.60;8.38;;;;;;;0.57;86.13;95914.31;5093532;28;20128;-63
2023/03/05 04:35:34;;;;;;;16.02;8.13;;;;;;;0.60;86.11;95911.72;5093545;28;20043;-62
2023/03/05 04:38:01;;;;;;;12.35;7.25;;;;;;;0.60;85.85;95915.13;5093387;28;20071;-62
2023/03/05 04:40:30;;;;;;;14.20;7.25;;;;;;;0.59;85.75;95910.00;5093323;28;20044;-63
2023/03/05 04:42:57;;;;;;;10.60;7.05;;;;;;;0.58;85.84;95914.31;5093282;28;20074;-63
2023/03/05 04:45:24;;;;;;;38.42;23.13;;;;;;;0.58;85.69;95903.16;5093186;28;20455;-63
2023/03/05 04:47:51;;;;;;;24.17;17.40;;;;;;;0.57;85.84;95904.03;5093380;28;20044;-62
2023/03/05 04:50:19;;;;;;;12.68;8.43;;;;;;;0.58;85.74;95905.72;5093283;28;20076;-63
2023/03/05 04:52:47;;;;;;;15.80;8.52;;;;;;;0.57;86.53;95906.59;5093232;28;20060;-63
2023/03/05 04:55:16;;;;;;;14.60;7.72;;;;;;;0.61;86.52;95910.84;5093252;28;20130;-64
2023/03/05 04:57:45;;;;;;;10.68;6.00;;;;;;;0.68;86.91;95911.63;5092995;28;20052;-63
2023/03/05 05:00:14;;;;;;;11.65;7.88;;;;;;;0.75;87.22;95914.13;5092958;28;20058;-62
2023/03/05 05:02:42;;;;;;;12.38;7.85;;;;;;;0.80;86.75;95915.81;5093137;28;20076;-64
2023/03/05 05:05:10;;;;;;;10.20;6.88;;;;;;;0.77;86.86;95916.69;5093086;28;20117;-64
2023/03/05 05:07:37;;;;;;;13.07;6.53;;;;;;;0.83;86.37;95910.63;5093277;28;20109;-64
2023/03/05 05:10:06;;;;;;;10.85;6.70;;;;;;;0.86;86.77;95916.63;5093096;28;20051;-63
2023/03/05 05:12:35;;;;;;;13.60;6.50;;;;;;;0.94;86.43;95918.28;5092993;28;20058;-63
2023/03/05 05:15:07;;;;;;;9.65;7.10;;;;;;;1.02;86.73;95921.59;5093057;28;20055;-63
2023/03/05 05:17:35;;;;;;;19.38;8.02;;;;;;;1.12;86.81;95923.22;5092956;28;20547;-63
2023/03/05 05:20:05;;;;;;;15.32;7.60;;;;;;;1.15;87.03;95918.91;5093771;28;20481;-63
2023/03/05 05:22:33;;;;;;;19.35;9.88;;;;;;;1.32;87.40;95924.72;5097145;28;20052;-63
2023/03/05 05:25:00;;;;;;;24.60;8.48;;;;;;;1.41;87.81;95921.19;5097025;28;20044;-62
2023/03/05 05:27:28;;;;;;;11.73;8.00;;;;;;;1.56;87.85;95920.16;5097001;28;20127;-63
2023/03/05 05:29:55;;;;;;;18.10;10.13;;;;;;;1.73;87.96;95924.25;5096940;28;20102;-64
2023/03/05 05:32:25;;;;;;;12.00;8.05;;;;;;;1.89;87.75;95935.22;5096964;28;20119;-64
2023/03/05 05:34:55;;;;;;;14.20;7.95;;;;;;;2.13;87.95;95933.19;5096911;28;20087;-64
2023/03/05 05:37:23;;;;;;;11.35;7.97;;;;;;;2.81;88.97;95939.03;5096692;28;20054;-63
2023/03/05 05:39:51;;;;;;;10.98;7.30;;;;;;;3.48;85.73;95937.84;5096672;28;20055;-64
2023/03/05 05:42:19;;;;;;;9.32;6.45;;;;;;;4.09;83.56;95935.75;5096691;28;20044;-63
2023/03/05 05:44:47;;;;;;;8.95;6.18;;;;;;;4.36;80.26;95943.81;5096440;28;20079;-63
2023/03/05 05:47:15;;;;;;;12.52;5.32;;;;;;;4.45;78.39;95937.56;5096729;28;20052;-64
2023/03/05 05:49:43;;;;;;;7.78;5.80;;;;;;;4.62;77.12;95940.59;5096599;28;20052;-63
2023/03/05 05:52:10;;;;;;;13.43;6.57;;;;;;;4.71;76.32;95942.13;5096608;28;20051;-63
2023/03/05 05:54:38;;;;;;;13.32;6.35;;;;;;;4.74;75.96;95941.19;5096609;28;20394;-63
2023/03/05 05:57:05;;;;;;;12.90;6.20;;;;;;;4.72;76.21;95941.22;5096365;28;20051;-64
2023/03/05 05:59:33;;;;;;;9.07;6.90;;;;;;;4.72;76.83;95946.41;5096482;28;20056;-64
2023/03/05 06:02:01;;;;;;;11.63;7.60;;;;;;;4.75;77.92;95945.47;5096398;28;20044;-63
2023/03/05 06:04:28;;;;;;;13.80;8.02;;;;;;;4.85;78.19;95946.94;5096480;28;20378;-63
2023/03/05 06:06:59;;;;;;;18.50;8.00;;;;;;;4.97;78.70;95950.13;5096334;28;20109;-64
2023/03/05 06:09:27;;;;;;;16.25;8.88;;;;;;;5.14;79.06;95945.34;5096158;28;20155;-62
2023/03/05 06:11:54;;;;;;;18.60;9.25;;;;;;;5.48;79.72;95945.38;5096084;28;20048;-62
2023/03/05 06:14:22;;;;;;;14.27;8.15;;;;;;;5.86;78.12;95948.63;5096166;28;20052;-64
2023/03/05 06:16:49;;;;;;;8.38;6.32;;;;;;;6.22;77.87;95949.34;5096169;28;20040;-63
2023/03/05 06:19:17;;;;;;;7.95;6.38;;;;;;;6.47;77.16;95951.22;5096138;28;20150;-64
2023/03/05 06:21:45;;;;;;;13.60;7.32;;;;;;;6.59;75.77;95952.59;5096055;28;20054;-63
2023/03/05 06:24:18;;;;;;;10.27;7.55;;;;;;;6.78;75.26;95951.09;5095895;28;20040;-62
2023/03/05 06:26:47;;;;;;;11.23;7.47;;;;;;;7.13;74.16;95958.63;5096076;28;20401;-63
2023/03/05 06:29:16;;;;;;;12.68;8.18;;;;;;;7.76;73.71;95953.88;5096265;28;20474;-63
2023/03/05 06:31:43;;;;;;;11.25;8.23;;;;;;;9.32;69.43;95950.50;5095041;28;20063;-63
2023/03/05 06:34:11;;;;;;;13.73;7.95;;;;;;;10.09;64.79;95955.91;5095778;28;20507;-63
2023/03/05 06:36:40;;;;;;;15.63;9.60;;;;;;;11.09;59.13;95956.50;5095793;28;20044;-63
2023/03/05 06:39:07;;;;;;;17.38;11.38;;;;;;;11.66;55.98;95962.41;5095722;28;20048;-63
2023/03/05 06:41:37;;;;;;;13.43;9.48;;;;;;;12.31;55.63;95960.81;5095563;28;20131;-63
2023/03/05 06:44:05;;;;;;;19.95;11.10;;;;;;;13.03;51.88;95962.97;5095627;28;20047;-63
2023/03/05 06:46:36;;;;;;;16.30;10.40;;;;;;;12.88;51.13;95957.66;5095462;28;20076;-63
2023/03/05 06:49:04;;;;;;;;;;;;;;;11.95;51.31;95963.50;5095808;28;20051;-63
2023/03/05 06:51:34;;;;;;;18.95;10.43;;;;;;;11.21;53.30;95966.38;5095439;28;19978;-63
2023/03/05 06:54:03;;;;;;;19.55;11.23;;;;;;;10.60;55.68;95964.03;5095287;28;20109;-64
2023/03/05 06:56:31;;;;;;;20.27;12.00;;;;;;;10.17;56.14;95952.94;5095333;28;20048;-63
2023/03/05 06:59:00;;;;;;;18.52;11.60;;;;;;;9.90;60.00;95954.09;5095109;28;20138;-63
2023/03/05 07:01:27;;;;;;;19.70;11.20;;;;;;;9.65;58.52;95951.72;5095302;28;20508;-63
2023/03/05 07:03:57;;;;;;;19.92;12.80;;;;;;;9.25;61.21;95949.06;5095200;28;20044;-63
2023/03/05 07:06:26;;;;;;;23.13;12.73;;;;;;;9.26;62.64;95950.75;5095103;28;20044;-63
2023/03/05 07:08:56;;;;;;;16.55;11.77;;;;;;;9.09;60.16;95953.16;5095084;28;20075;-64
2023/03/05 07:11:24;;;;;;;20.03;12.93;;;;;;;8.92;61.13;95951.28;5095128;28;20055;-63
2023/03/05 07:13:51;;;;;;;21.88;11.38;;;;;;;8.68;60.41;95948.75;5095042;28;20090;-63
2023/03/05 07:16:23;;;;;;;19.13;11.88;;;;;;;8.39;61.93;95947.22;5095049;28;20459;-63
2023/03/05 07:18:51;;;;;;;23.83;13.18;;;;;;;8.26;62.32;95946.84;5095016;28;20125;-63
2023/03/05 07:21:21;;;;;;;20.15;11.95;;;;;;;8.14;61.99;95940.34;5094847;28;20044;-63
2023/03/05 07:23:53;;;;;;;19.50;11.75;;;;;;;8.02;62.05;95945.13;5094799;28;20052;-63
2023/03/05 07:26:21;;;;;;;22.23;12.27;;;;;;;8.11;63.07;95930.06;5094750;28;20054;-62
2023/03/05 07:28:48;;;;;;;21.50;11.10;;;;;;;8.18;62.71;95931.50;5094609;28;20477;-64
2023/03/05 07:31:17;;;;;;;24.70;12.25;;;;;;;8.18;63.41;95924.56;5094728;28;20053;-64
2023/03/05 07:33:48;;;;;;;20.03;12.03;;;;;;;8.21;62.70;95928.78;5094648;28;20131;-64
2023/03/05 07:36:16;;;;;;;20.20;11.50;;;;;;;8.25;62.74;95926.94;5094467;28;20044;-63
2023/03/05 07:38:44;;;;;;;21.40;11.90;;;;;;;8.25;63.29;95924.31;5094513;28;20044;-64
2023/03/05 07:41:13;;;;;;;14.27;10.05;;;;;;;8.29;62.83;95928.50;5094445;28;20044;-63
2023/03/05 07:43:40;;;;;;;19.88;11.68;;;;;;;8.35;63.65;95923.06;5094359;28;20051;-63
2023/03/05 07:46:11;;;;;;;19.25;10.68;;;;;;;8.39;62.25;95922.03;5094295;28;20048;-63
2023/03/05 07:48:39;;;;;;;18.27;10.68;;;;;;;8.49;64.47;95917.28;5094319;28;20052;-63
2023/03/05 07:51:13;;;;;;;14.88;10.57;;;;;;;8.58;68.98;95922.16;5094232;28;20048;-63
2023/03/05 07:53:41;;;;;;;18.08;11.82;;;;;;;8.76;68.74;95917.13;5094090;28;20048;-64
2023/03/05 07:56:10;;;;;;;24.55;14.18;;;;;;;9.03;68.24;95919.50;5094267;28;20515;-63
2023/03/05 07:58:37;;;;;;;31.13;16.15;;;;;;;9.35;67.00;95911.22;5093955;28;20040;-63
2023/03/05 08:01:11;;;;;;;28.50;15.35;;;;;;;9.69;63.34;95911.53;5093974;28;20158;-63
2023/03/05 08:03:39;;;;;;;20.80;14.27;;;;;;;10.06;62.42;95904.59;5094070;28;20048;-64
2023/03/05 08:06:10;;;;;;;19.25;11.63;;;;;;;10.48;60.86;95907.09;5093863;28;20080;-63
2023/03/05 08:08:37;;;;;;;19.30;11.75;;;;;;;10.86;59.78;95906.13;5093926;28;20055;-64
2023/03/05 08:11:07;;;;;;;18.77;12.15;;;;;;;11.03;57.82;95907.94;5093911;28;20063;-64
2023/03/05 08:13:34;;;;;;;19.00;11.20;;;;;;;11.04;55.82;95908.75;5093809;28;20044;-64
2023/03/05 08:16:05;;;;;;;20.30;11.63;;;;;;;10.68;57.00;95903.50;5093822;28;20044;-64
2023/03/05 08:18:33;;;;;;;16.25;10.27;;;;;;;10.22;55.78;95902.16;5093755;28;20471;-64
2023/03/05 08:21:01;;;;;;;17.15;11.15;;;;;;;10.16;57.42;95901.56;5093817;28;20048;-63
2023/03/05 08:23:33;;;;;;;17.92;11.18;;;;;;;10.17;56.75;95895.44;5093789;28;20050;-63
2023/03/05 08:26:01;;;;;;;15.38;9.77;;;;;;;10.14;57.04;95898.19;5093693;28;20448;-63
2023/03/05 08:28:28;;;;;;;13.43;9.38;;;;;;;10.33;55.63;95899.00;5093785;28;20047;-64
2023/03/05 08:30:56;;;;;;;14.23;10.50;;;;;;;10.46;55.15;95896.72;5093551;28;20131;-64
2023/03/05 08:33:23;;;;;;;16.48;10.52;;;;;;;10.57;55.72;95890.13;5093732;28;20052;-64
2023/03/05 08:35:51;;;;;;;20.17;11.00;;;;;;;10.69;56.32;95888.66;5093469;28;20520;-63
2023/03/05 08:38:30;;;;;;;16.33;11.05;;;;;;;10.93;56.95;95891.81;5093342;28;20093;-63
2023/03/05 08:41:00;;;;;;;14.98;10.00;;;;;;;11.03;56.76;95894.84;5093349;28;20070;-64
2023/03/05 08:43:29;;;;;;;22.35;9.60;;;;;;;10.95;53.77;95892.59;5093326;28;20051;-64
2023/03/05 08:45:58;;;;;;;16.73;9.95;;;;;;;10.95;54.42;95895.22;5093427;28;20520;-64
2023/03/05 08:48:26;;;;;;;17.08;10.45;;;;;;;10.93;53.87;95891.81;5093408;28;20052;-64
2023/03/05 08:50:55;;;;;;;20.60;9.82;;;;;;;10.90;55.12;95891.16;5093265;28;20493;-64
2023/03/05 08:53:22;;;;;;;15.70;8.80;;;;;;;10.85;55.25;95889.63;5093244;28;20048;-63
2023/03/05 08:55:54;;;;;;;23.25;11.70;;;;;;;10.83;54.79;95874.91;5092615;28;20059;-64
2023/03/05 08:58:25;;;;;;;13.65;9.23;;;;;;;10.79;54.03;95881.22;5092984;28;20140;-63
2023/03/05 09:00:53;;;;;;;13.60;9.52;;;;;;;10.84;54.40;95887.91;5093218;28;20056;-64
2023/03/05 09:03:20;;;;;;;13.73;8.85;;;;;;;10.84;51.46;95882.66;5093165;28;20131;-64
2023/03/05 09:05:48;;;;;;;15.23;8.82;;;;;;;10.88;52.29;95883.38;5093198;28;20422;-63
2023/03/05 09:08:15;;;;;;;12.93;8.45;;;;;;;10.92;51.09;95884.91;5093212;28;20051;-64
2023/03/05 09:10:43;;;;;;;14.15;9.45;;;;;;;11.02;51.46;95877.47;5093072;28;20056;-63
2023/03/05 09:13:10;;;;;;;12.63;8.05;;;;;;;11.25;52.26;95875.44;5093066;28;20539;-64
2023/03/05 09:15:39;;;;;;;11.60;7.80;;;;;;;11.66;48.64;95875.97;5093089;28;20044;-63
2023/03/05 09:18:09;;;;;;;10.82;6.43;;;;;;;11.66;48.10;95878.59;5092924;28;20101;-63
2023/03/05 09:20:37;;;;;;;13.05;8.48;;;;;;;11.85;47.33;95876.69;5092972;28;20455;-63
2023/03/05 09:23:05;;;;;;;12.38;8.27;;;;;;;12.08;48.50;95876.41;5093114;28;20074;-63
2023/03/05 09:25:32;;;;;;;14.30;7.13;;;;;;;12.10;45.91;95874.53;5092911;28;20051;-64
2023/03/05 09:28:00;;;;;;;12.07;7.28;;;;;;;11.98;46.22;95876.84;5092932;28;20048;-63
2023/03/05 09:30:27;;;;;;;9.10;7.05;;;;;;;11.90;47.78;95871.19;5092874;28;20087;-64
2023/03/05 09:32:56;;;;;;;13.10;7.97;;;;;;;11.92;49.35;95873.72;5092916;28;20048;-64
2023/03/05 09:35:24;;;;;;;9.38;7.68;;;;;;;11.75;49.08;95867.63;5092902;28;20055;-63
2023/03/05 09:37:52;;;;;;;9.73;7.55;;;;;;;11.65;48.36;95876.91;5092924;28;20066;-64
2023/03/05 09:40:21;;;;;;;11.32;7.53;;;;;;;11.36;48.32;95867.03;5092882;28;20056;-64
2023/03/05 09:43:06;;;;;;;10.93;7.35;;;;;;;11.25;47.87;95875.44;5092727;28;20135;-64
2023/03/05 09:45:39;;;;;;;8.32;7.07;;;;;;;11.07;47.66;95878.06;5092676;28;20052;-63
2023/03/05 09:48:17;;;;;;;15.00;7.70;;;;;;;10.83;48.49;95872.28;5092916;28;20071;-64
2023/03/05 09:50:49;;;;;;;9.68;5.93;;;;;;;10.72;50.07;95871.03;5092585;28;20048;-63
2023/03/05 09:53:24;;;;;;;10.10;5.88;;;;;;;10.55;50.16;95869.28;5092609;28;20397;-64
2023/03/05 09:55:55;;;;;;;14.38;7.75;;;;;;;10.43;53.75;95860.22;5092777;28;20139;-63
2023/03/05 09:58:31;;;;;;;13.55;9.35;;;;;;;10.32;57.12;95854.63;5092487;28;20135;-63
2023/03/05 10:01:02;;;;;;;20.42;10.95;;;;;;;10.20;60.06;95856.06;5092599;28;20477;-64
2023/03/05 10:03:42;;;;;;;18.25;9.80;;;;;;;10.13;61.44;95850.31;5092572;28;20130;-64
2023/03/05 10:06:17;;;;;;;18.85;10.70;;;;;;;10.01;62.31;95846.50;5092596;28;20048;-64
2023/03/05 10:08:54;;;;;;;17.58;10.73;;;;;;;9.86;62.78;95850.69;5095465;28;20462;-64
2023/03/05 10:11:41;;;;;;;15.20;10.70;;;;;;;9.77;64.21;95851.09;5094491;28;20391;-64
2023/03/05 10:14:15;;;;;;;19.05;11.27;;;;;;;9.57;65.33;95848.47;5096043;28;20098;-64
2023/03/05 10:17:03;;;;;;;18.25;11.70;;;;;;;9.52;65.26;95839.16;5096155;28;20045;-64
2023/03/05 10:19:53;;;;;;;17.85;11.35;;;;;;;9.50;65.19;95846.19;5110026;28;20054;-63
2023/03/05 10:22:23;;;;;;;17.50;11.77;;;;;;;9.42;65.64;95833.50;5102771;28;20044;-64
2023/03/05 10:25:10;;;;;;;19.95;11.73;;;;;;;9.39;65.94;95833.66;5095599;28;20048;-63
2023/03/05 10:27:49;;;;;;;19.58;11.63;;;;;;;9.46;64.72;95825.44;5100779;28;20043;-64
2023/03/05 10:30:34;;;;;;;18.55;11.43;;;;;;;9.50;65.33;95818.34;5107236;28;20101;-63
2023/03/05 10:33:16;;;;;;;18.00;11.65;;;;;;;9.44;65.06;95810.78;5095833;28;20044;-64
2023/03/05 10:36:19;;;;;;;21.98;11.35;;;;;;;9.43;65.49;95803.88;5095904;28;20044;-64
2023/03/05 10:39:07;;;;;;;14.57;10.57;;;;;;;9.42;65.53;95789.13;5095283;28;20055;-63
2023/03/05 10:41:42;;;;;;;15.90;10.77;;;;;;;9.41;65.87;95790.88;5095515;28;20145;-63
2023/03/05 10:44:22;;;;;;;23.85;12.15;;;;;;;9.43;65.60;95783.84;5095071;28;20123;-64
2023/03/05 10:46:51;;;;;;;17.85;11.45;;;;;;;9.54;65.39;95783.34;5095596;28;20371;-63
2023/03/05 10:49:23;;;;;;;27.30;15.20;;;;;;;9.60;65.93;95784.81;5095613;28;20048;-64
2023/03/05 10:52:01;;;;;;;23.63;17.15;;;;;;;9.70;65.76;95780.03;5095436;28;20054;-64
2023/03/05 10:54:30;;;;;;;45.60;29.60;;;;;;;9.82;65.11;95771.59;5095498;28;20460;-64
2023/03/05 10:57:05;;;;;;;17.55;12.13;;;;;;;9.84;63.96;95781.97;5095086;28;20051;-63
2023/03/05 10:59:34;;;;;;;17.35;11.90;;;;;;;9.82;63.78;95766.38;5075202;28;20045;-63
2023/03/05 11:02:07;;;;;;;19.08;12.00;;;;;;;9.80;63.49;95763.00;5074849;28;20058;-63
2023/03/05 11:04:39;;;;;;;19.02;12.02;;;;;;;9.87;64.18;95760.94;5074833;28;20413;-63
2023/03/05 11:07:29;;;;;;;16.98;12.00;;;;;;;9.91;64.35;95757.28;5075074;28;20139;-64
2023/03/05 11:10:05;;;;;;;24.83;16.67;;;;;;;9.95;64.32;95747.50;5075004;28;20045;-63
2023/03/05 11:12:35;;;;;;;15.68;12.07;;;;;;;9.97;64.19;95750.91;5074899;28;20048;-63
2023/03/05 11:15:26;;;;;;;22.70;12.25;;;;;;;9.96;64.35;95736.97;5077648;28;20105;-64
2023/03/05 11:18:23;;;;;;;17.35;12.30;;;;;;;10.04;64.08;95727.94;5094621;28;20040;-63
2023/03/05 11:20:51;;;;;;;22.65;13.35;;;;;;;10.07;63.52;95722.56;5059140;28;20048;-63
2023/03/05 11:23:22;;;;;;;17.55;11.93;;;;;;;10.15;63.83;95722.19;5094839;28;20052;-63
2023/03/05 11:25:56;;;;;;;19.83;11.88;;;;;;;10.14;65.02;95731.78;5095016;28;20071;-64
2023/03/05 11:28:26;;;;;;;18.58;12.40;;;;;;;10.06;64.68;95726.09;5094793;28;20409;-64
2023/03/05 11:31:00;;;;;;;18.77;11.77;;;;;;;10.24;63.49;95717.31;5094756;28;20080;-64
2023/03/05 11:33:31;;;;;;;19.20;12.52;;;;;;;10.34;62.39;95725.56;5094686;28;20094;-64
2023/03/05 11:36:24;;;;;;;19.27;13.23;;;;;;;10.40;61.00;95728.78;5094587;28;20048;-64
2023/03/05 11:38:58;;;;;;;23.95;10.13;;;;;;;10.41;59.62;95728.72;5087864;28;20093;-63
2023/03/05 11:41:37;;;;;;;18.42;10.25;;;;;;;10.29;60.06;95718.91;5093940;28;20067;-63